Beloit, Kansas
Current Conditions -  °F | °C
As of 7:55 AM on Monday 24 Nov 2014 (Local Time) from KCNK Reporting Station
Clear Clear  
Wind Chill: 22°   Ceiling: Unl
Heat Index: 32°   Visibility: 10mi
Dew Point: 23°   Wind: 14mph
Humidity: 69%   Direction: 290°WNW
Pressure: 29.75"   Gusts: NA
Location:  39.46°N, 98.11°W
Report Text: KCNK 241355Z AUTO 29012KT 10SM CLR 00/M05 A2975 RMK AO2 SLP083 T00001050
Loading
Personal Weather Stations






























Interactive Weather Map New forecast layout! Learn more

10-Day Weather Forecast

Advertisements
Track Severe Weather on mobile